WetterOnline ( https://www.wetteronline.at )

Wetter aktuell Langenzersdorf

Aktuelles Wetter: Wien / Hohe Warte (200m)

6-stündlich | Neueste Meldungen
Ortszeit Temperatur Wetter
Mo, 03.08. 14:00 19.9° C bedeckt
Mo, 03.08. 8:00 20.1° C leichte Schauer
Mo, 03.08. 2:00 21.1° C wolkig
So, 02.08. 20:00 24.8° C wolkig
So, 02.08. 14:00 27.9° C Tromben
So, 02.08. 8:00 20.6° C leicht bewölkt
So, 02.08. 2:00 18.3° C leicht bewölkt
Sa, 01.08. 20:00 26.6° C wolkenlos
Ortszeit Temperatur Wetter
Mo, 03.08. 19:00 20.6° C wolkig
Mo, 03.08. 18:00 21.5° C wolkig
Mo, 03.08. 17:00 21.3° C wolkig
Mo, 03.08. 16:00 20.6° C bewölkt
Mo, 03.08. 15:00 20.2° C bewölkt, nach Regen
Mo, 03.08. 14:00 19.9° C bedeckt, nach Regen
Ortszeit Relative Feuchte Sichtweite
Mo, 03.08. 14:00 89% 20 km
Mo, 03.08. 8:00 94% 17 km
Mo, 03.08. 2:00 73% 30 km
So, 02.08. 20:00 62% 40 km
So, 02.08. 14:00 43% 55 km
So, 02.08. 8:00 59% 55 km
So, 02.08. 2:00 67% 40 km
Sa, 01.08. 20:00 34% 50 km
Ortszeit Relative Feuchte Sichtweite
Mo, 03.08. 19:00 83% 45 km
Mo, 03.08. 18:00 76% 45 km
Mo, 03.08. 17:00 79% 40 km
Mo, 03.08. 16:00 81% 40 km
Mo, 03.08. 15:00 84% 30 km
Mo, 03.08. 14:00 89% 20 km
Ortszeit Niederschlagsmenge Niederschlagsart
Mo, 03.08. 14:00 9 l/m2 in 6 Std. Regenschauer
Mo, 03.08. 8:00 3 l/m2 in 12 Std. Schauer
Mo, 03.08. 2:00 0.1 l/m2 in 6 Std. Regen
So, 02.08. 20:00 0.0 l/m2 in 24 Std. -
So, 02.08. 14:00 0.0 l/m2 in 24 Std. -
So, 02.08. 8:00 0.0 l/m2 in 24 Std. -
So, 02.08. 2:00 0.0 l/m2 in 24 Std. -
Sa, 01.08. 20:00 0.1 l/m2 in 12 Std. -
Ortszeit Niederschlagsmenge Niederschlagsart
Mo, 03.08. 19:00 keine Meldung -
Mo, 03.08. 18:00 keine Meldung -
Mo, 03.08. 17:00 keine Meldung -
Mo, 03.08. 16:00 keine Meldung -
Mo, 03.08. 15:00 0.1 l/m2 in 1 Std. Regen
Mo, 03.08. 14:00 keine Meldung -
Ortszeit Stärke Spitze Richtung
km/h Bft. km/h Grad Sektor
Mo, 03.08. 14:00 7 2 - 310° NW
Mo, 03.08. 8:00 7 2 - 120° SO
Mo, 03.08. 2:00 7 2 - 260° W
So, 02.08. 20:00 4 1 - 310° NW
So, 02.08. 14:00 14 3 - 100° O
So, 02.08. 8:00 14 3 - 120° SO
So, 02.08. 2:00 4 1 - 20° N
Sa, 01.08. 20:00 7 2 - 60° NO
Ortszeit Stärke Spitze Richtung
km/h Bft. km/h Grad Sektor
Mo, 03.08. 19:00 7 2 - 310° NW
Mo, 03.08. 18:00 7 2 - 330° NW
Mo, 03.08. 17:00 7 2 - 360° N
Mo, 03.08. 16:00 11 2 - 310° NW
Mo, 03.08. 15:00 7 2 - 320° NW
Mo, 03.08. 14:00 7 2 - 310° NW
Ortszeit Untergrenze Bedeckung Gattung
total tief tief mittel hoch
Mo, 03.08. 14:00 240 m 8/8 8/8 Cu - -
Mo, 03.08. 8:00 90 m 8/8 7/8 Cu As -
Mo, 03.08. 2:00 2700 m 8/8 8/8 - As -
So, 02.08. 20:00 2700 m 8/8 8/8 - As -
So, 02.08. 14:00 1140 m 7/8 1/8 Cb Ac Cs
So, 02.08. 8:00 2400 m 7/8 1/8 - Ac Ci
So, 02.08. 2:00 9000 m 3/8 0/8 - - Ci
Sa, 01.08. 20:00 - 0/8 0/8 - - -
Ortszeit Bedeckungsgrad in Achtel und Wolkenuntergrenze
Mo, 03.08. 19:00 1(540m) 4(2700m) 7(9000m)
Mo, 03.08. 18:00 1(540m) 6(9000m)
Mo, 03.08. 17:00 2(480m) 5(3300m)
Mo, 03.08. 16:00 4(480m) 6(2100m)
Mo, 03.08. 15:00 4(360m) 6(2100m)
Mo, 03.08. 14:00 6(240m) 8(2100m)
Ortszeit Luftdruck NN (hPa) Tendenz (hPa in 3 Std.)
Mo, 03.08. 14:00 1009 0,0
Mo, 03.08. 8:00 1009 - 1,0
Mo, 03.08. 2:00 1011 - 0,2
So, 02.08. 20:00 1011 - 0,4
So, 02.08. 14:00 1012 - 1,2
So, 02.08. 8:00 1014 + 0,3
So, 02.08. 2:00 1015 - 0,1
Sa, 01.08. 20:00 1013 - 0,6
Ortszeit Luftdruck NN (hPa) Tendenz (hPa in 3 Std.)
Mo, 03.08. 19:00 1007 - 1,5
Mo, 03.08. 18:00 1007 - 1,3
Mo, 03.08. 17:00 1007 - 1,2
Mo, 03.08. 16:00 1008 - 0,4
Mo, 03.08. 15:00 1008 - 0,8
Mo, 03.08. 14:00 1009 0,0
Ortszeit Schneehöhe (cm)
Mo, 03.08. 14:00 -
Mo, 03.08. 8:00 -
Mo, 03.08. 2:00 -
So, 02.08. 20:00 -
So, 02.08. 14:00 -
So, 02.08. 8:00 -
So, 02.08. 2:00 -
Sa, 01.08. 20:00 -
Ortszeit Schneehöhe (cm)
Mo, 03.08. 19:00 -
Mo, 03.08. 18:00 -
Mo, 03.08. 17:00 -
Mo, 03.08. 16:00 -
Mo, 03.08. 15:00 -
Mo, 03.08. 14:00 -
Link zu dieser Seite / Seite empfehlen

Das Wetter in ...